Time;durP1;ratioP1;P1;durP2;ratioP2;P2;SDS_P1;SDS_P2;PMS_P1;PMS_P2;Temp;Humidity;BMP_temperature;BMP_pressure;BME280_temperature;BME280_humidity;BME280_pressure;Samples;Min_cycle;Max_cycle;Signal;HPM_P1;HPM_P2
2022/12/19 00:01:31;;;;;;;14.20;8.15;;;;;;;-1.35;78.72;101628.69;6127194;23;20044;-78
2022/12/19 00:04:01;;;;;;;15.32;8.30;;;;;;;-1.34;79.12;101627.91;6154789;23;20013;-77
2022/12/19 00:06:29;;;;;;;15.63;8.02;;;;;;;-1.27;78.89;101625.66;6152600;23;20635;-77
2022/12/19 00:08:59;;;;;;;17.80;8.00;;;;;;;-1.24;78.73;101625.81;6173916;23;20844;-78
2022/12/19 00:11:30;;;;;;;17.08;8.68;;;;;;;-1.23;78.67;101630.16;6151539;23;20108;-77
2022/12/19 00:13:57;;;;;;;13.30;8.00;;;;;;;-1.20;78.63;101625.19;6176854;23;20017;-77
2022/12/19 00:16:27;;;;;;;12.60;8.68;;;;;;;-1.15;79.11;101628.03;6162015;22;20775;-76
2022/12/19 00:18:57;;;;;;;14.20;8.48;;;;;;;-1.17;79.20;101613.41;6243504;22;20023;-77
2022/12/19 00:21:28;;;;;;;16.05;8.00;;;;;;;-1.09;78.98;101629.25;6242956;22;20036;-77
2022/12/19 00:23:55;;;;;;;15.63;7.93;;;;;;;-1.10;79.45;101619.75;6245649;22;20107;-75
2022/12/19 00:26:42;;;;;;;17.45;8.63;;;;;;;-1.04;79.60;101612.38;6219106;22;20318;-77
2022/12/19 00:29:09;;;;;;;17.30;8.45;;;;;;;-1.02;80.74;101618.50;6246408;22;20294;-78
2022/12/19 00:31:36;;;;;;;19.85;8.75;;;;;;;-1.00;80.87;101608.31;6243426;22;20118;-77
2022/12/19 00:34:03;;;;;;;17.00;10.15;;;;;;;-0.99;81.41;101610.06;6218569;22;20015;-77
2022/12/19 00:36:32;;;;;;;17.00;8.80;;;;;;;-0.98;82.23;101595.53;6269559;22;20081;-78
2022/12/19 00:39:01;;;;;;;14.30;8.63;;;;;;;-0.98;82.19;101593.81;6240087;22;20098;-77
2022/12/19 00:41:33;;;;;;;16.23;8.45;;;;;;;-0.97;82.34;101592.16;6238993;22;20477;-77
2022/12/19 00:44:07;;;;;;;14.38;8.05;;;;;;;-0.97;83.06;101580.19;6236552;22;20089;-77
2022/12/19 00:46:35;;;;;;;16.05;9.65;;;;;;;-0.94;83.21;101593.22;6241034;22;20043;-78
2022/12/19 00:49:02;;;;;;;14.43;8.45;;;;;;;-0.91;83.46;101592.47;6240002;22;20074;-77
2022/12/19 00:51:34;;;;;;;18.65;8.23;;;;;;;-0.89;83.65;101583.16;6212816;22;20027;-78
2022/12/19 00:54:01;;;;;;;18.00;9.40;;;;;;;-0.90;83.80;101581.38;6240446;22;20022;-78
2022/12/19 00:56:32;;;;;;;16.52;8.88;;;;;;;-0.91;83.89;101575.38;6216545;22;20030;-77
2022/12/19 00:58:59;;;;;;;17.08;8.73;;;;;;;-0.89;85.19;101580.59;6214832;22;20023;-77
2022/12/19 01:04:14;;;;;;;17.92;8.57;;;;;;;-0.88;87.04;101579.78;6240034;22;20016;-77
2022/12/19 01:06:40;;;;;;;17.48;9.95;;;;;;;-0.88;87.95;101577.22;6241266;22;20043;-77
2022/12/19 01:09:08;;;;;;;19.75;8.82;;;;;;;-0.89;88.22;101568.59;6267526;22;20065;-77
2022/12/19 01:14:18;;;;;;;;;;;;;;;-0.89;90.85;101573.75;6222712;22;20055;-76
2022/12/19 01:16:45;;;;;;;16.63;9.10;;;;;;;-0.89;91.29;101580.59;6244043;22;19911;-76
2022/12/19 01:19:12;;;;;;;17.73;9.15;;;;;;;-0.88;90.94;101575.53;6244569;22;20015;-76
2022/12/19 01:21:38;;;;;;;18.58;10.27;;;;;;;-0.88;92.08;101575.53;6243680;22;20015;-76
2022/12/19 01:24:06;;;;;;;20.52;10.25;;;;;;;-0.85;92.61;101574.78;6243700;22;20093;-77
2022/12/19 01:26:32;;;;;;;17.73;9.73;;;;;;;-0.82;93.10;101574.06;6244031;22;20664;-77
2022/12/19 01:29:00;;;;;;;14.88;9.43;;;;;;;-0.81;93.31;101556.16;6215424;22;20061;-76
2022/12/19 01:31:26;;;;;;;18.45;8.40;;;;;;;-0.77;93.66;101564.91;6237560;22;20016;-76
2022/12/19 01:33:55;;;;;;;14.82;9.65;;;;;;;-0.74;93.83;101567.66;6216365;22;20109;-77
2022/12/19 01:36:21;;;;;;;18.05;8.85;;;;;;;-0.72;94.37;101563.47;6241575;22;20015;-77
2022/12/19 01:38:48;;;;;;;16.67;9.43;;;;;;;-0.74;94.31;101560.81;6239736;22;20044;-77
2022/12/19 01:41:14;;;;;;;15.43;9.77;;;;;;;-0.75;94.28;101550.47;6214769;22;20155;-78
2022/12/19 01:44:14;;;;;;;18.80;10.95;;;;;;;-0.76;93.92;101544.41;6240707;22;20015;-76
2022/12/19 01:46:50;;;;;;;16.35;8.45;;;;;;;-0.78;94.34;101540.00;6185048;22;20655;-76
2022/12/19 01:49:31;;;;;;;15.32;9.00;;;;;;;-0.80;93.83;101542.50;6212672;22;20012;-76
2022/12/19 01:52:02;;;;;;;17.30;9.25;;;;;;;-0.79;94.55;101554.56;6238228;22;20026;-78
2022/12/19 01:54:34;;;;;;;16.80;9.82;;;;;;;-0.78;94.78;101542.56;6241742;22;20022;-77
2022/12/19 01:57:03;;;;;;;21.83;10.27;;;;;;;-0.79;95.24;101549.41;6240569;22;20026;-77
2022/12/19 01:59:40;;;;;;;16.27;9.55;;;;;;;-0.79;95.39;101544.28;6240309;22;20043;-76
2022/12/19 02:02:35;;;;;;;16.38;9.30;;;;;;;-0.81;95.23;101539.84;6236994;22;20580;-76
2022/12/19 02:05:04;;;;;;;17.75;9.18;;;;;;;-0.78;94.61;101529.72;6241529;22;20114;-77
2022/12/19 02:07:32;;;;;;;16.30;10.02;;;;;;;-0.80;94.73;101533.91;6267892;22;20016;-77
2022/12/19 02:09:59;;;;;;;15.57;8.95;;;;;;;-0.82;95.63;101527.81;6239350;22;20012;-77
2022/12/19 02:12:28;;;;;;;16.52;8.88;;;;;;;-0.77;95.16;101526.34;6207514;22;20026;-77
2022/12/19 02:14:57;;;;;;;17.77;9.30;;;;;;;-0.83;95.13;101503.78;6238408;22;20043;-78
2022/12/19 02:17:39;;;;;;;15.20;9.35;;;;;;;-0.85;95.64;101508.88;6241106;22;20016;-77
2022/12/19 02:20:28;;;;;;;17.70;9.75;;;;;;;-0.85;96.18;101496.00;6239837;22;20016;-77
2022/12/19 02:23:00;;;;;;;18.02;9.75;;;;;;;-0.87;96.33;101497.59;6212963;22;20335;-76
2022/12/19 02:25:37;;;;;;;17.70;9.57;;;;;;;-0.89;96.12;101486.34;6266157;22;20019;-77
2022/12/19 02:28:25;;;;;;;15.73;9.75;;;;;;;-0.90;96.54;101488.84;6237390;22;20020;-75
2022/12/19 02:31:10;;;;;;;17.85;10.00;;;;;;;-0.90;96.64;101491.41;6265435;22;20019;-77
2022/12/19 02:33:45;;;;;;;17.38;10.32;;;;;;;-0.90;96.72;101487.19;6264831;22;20012;-75
2022/12/19 02:36:22;;;;;;;20.77;10.48;;;;;;;-0.90;96.73;101476.91;6265107;22;20073;-76
2022/12/19 02:39:12;;;;;;;16.02;9.20;;;;;;;-0.89;96.84;101475.19;6215752;22;20023;-75
2022/12/19 02:41:49;;;;;;;22.48;11.27;;;;;;;-0.88;97.05;101488.13;6213963;22;20097;-77
2022/12/19 02:44:23;;;;;;;18.15;10.13;;;;;;;-0.88;97.08;101490.69;6241145;22;20050;-76
2022/12/19 02:46:52;;;;;;;16.55;9.00;;;;;;;-0.85;96.82;101492.53;6240927;22;20024;-75
2022/12/19 02:49:19;;;;;;;18.27;11.07;;;;;;;-0.85;97.05;101482.25;6214614;22;20057;-75
2022/12/19 02:51:45;;;;;;;18.92;10.30;;;;;;;-0.85;96.95;101480.59;6269967;22;20012;-76
2022/12/19 02:54:12;;;;;;;15.88;9.43;;;;;;;-0.84;96.81;101466.03;6242105;22;20016;-75
2022/12/19 02:57:25;;;;;;;17.35;9.52;;;;;;;-0.84;97.29;101463.47;6217899;22;20012;-76
2022/12/19 03:00:09;;;;;;;18.80;9.82;;;;;;;-0.84;97.24;101460.88;6240378;22;20417;-77
2022/12/19 03:03:06;;;;;;;;;;;;;;;-0.85;97.43;101460.03;6237146;22;20037;-75
2022/12/19 03:06:14;;;;;;;18.58;9.35;;;;;;;-0.81;97.24;101462.72;6243092;22;20298;-77
2022/12/19 03:09:11;;;;;;;18.92;9.00;;;;;;;-0.78;97.73;101450.91;6248263;22;20023;-76
2022/12/19 03:11:41;;;;;;;18.02;10.07;;;;;;;-0.77;97.34;101454.38;6214223;22;20023;-74
2022/12/19 03:14:15;;;;;;;21.85;10.60;;;;;;;-0.73;97.41;101466.56;6242749;22;20073;-75
2022/12/19 03:16:42;;;;;;;18.58;9.95;;;;;;;-0.72;97.47;101456.38;6242893;22;20107;-76
2022/12/19 03:19:13;;;;;;;20.98;11.10;;;;;;;-0.69;97.70;101453.94;6241131;22;20019;-75
2022/12/19 03:21:49;;;;;;;18.20;10.32;;;;;;;-0.64;97.49;101463.56;6240085;22;20012;-76
2022/12/19 03:24:17;;;;;;;14.35;10.18;;;;;;;-0.61;97.35;101466.28;6240407;22;20074;-76
2022/12/19 03:26:57;;;;;;;14.52;9.18;;;;;;;-0.59;97.30;101460.41;6243195;22;20011;-75
2022/12/19 03:29:56;;;;;;;16.67;9.65;;;;;;;-0.56;97.80;101451.97;6214415;22;20012;-75
2022/12/19 03:32:24;;;;;;;20.13;8.95;;;;;;;-0.52;97.78;101448.78;6243504;22;20038;-76
2022/12/19 03:35:06;;;;;;;17.40;10.05;;;;;;;-0.49;97.88;101443.75;6241804;22;20095;-75
2022/12/19 03:37:38;;;;;;;15.75;9.38;;;;;;;-0.45;97.86;101437.94;6240233;22;20744;-75
2022/12/19 03:40:19;;;;;;;16.70;10.18;;;;;;;-0.42;97.72;101435.53;6213639;22;20043;-75
2022/12/19 03:45:48;;;;;;;17.80;9.80;;;;;;;-0.38;97.92;101421.13;6242239;22;20008;-76
2022/12/19 03:48:51;;;;;;;17.88;9.88;;;;;;;-0.36;98.40;101424.66;6233072;22;20098;-76
2022/12/19 03:52:00;;;;;;;20.08;9.52;;;;;;;-0.33;97.91;101427.38;6233701;22;20131;-77
2022/12/19 03:54:33;;;;;;;19.77;10.95;;;;;;;-0.32;98.43;101426.56;6233728;22;20026;-76
2022/12/19 03:57:10;;;;;;;24.52;11.02;;;;;;;-0.30;98.38;101416.34;6264725;22;20417;-76
2022/12/19 04:00:02;;;;;;;18.08;10.13;;;;;;;-0.30;98.69;101413.78;6234938;22;20403;-77
2022/12/19 04:02:30;;;;;;;23.85;11.02;;;;;;;-0.29;98.57;101418.13;6232806;22;20016;-77
2022/12/19 04:05:05;;;;;;;18.88;10.10;;;;;;;-0.27;98.91;101407.09;6263402;22;20019;-77
2022/12/19 04:07:33;;;;;;;19.90;11.00;;;;;;;-0.25;98.74;101402.91;6234935;22;20075;-77
2022/12/19 04:10:05;;;;;;;22.02;10.57;;;;;;;-0.28;99.53;101392.44;6232960;22;20015;-77
2022/12/19 04:12:39;;;;;;;18.08;10.70;;;;;;;-0.30;100.00;101388.03;6237517;22;20043;-76
2022/12/19 04:15:07;;;;;;;18.70;10.27;;;;;;;-0.32;100.00;101397.41;6242172;22;20055;-76
2022/12/19 04:17:48;;;;;;;18.08;10.25;;;;;;;-0.35;100.00;101388.72;6240619;22;20016;-76
2022/12/19 04:20:18;;;;;;;19.13;9.77;;;;;;;-0.37;100.00;101390.31;6216801;22;20057;-77
2022/12/19 04:23:04;;;;;;;18.55;11.48;;;;;;;-0.36;100.00;101383.50;6240843;22;20502;-76
2022/12/19 04:25:37;;;;;;;22.40;11.30;;;;;;;-0.35;100.00;101393.84;6243208;22;20651;-77
2022/12/19 04:28:13;;;;;;;23.55;11.52;;;;;;;-0.33;100.00;101391.34;6240049;22;20086;-76
2022/12/19 04:30:42;;;;;;;21.48;11.77;;;;;;;-0.29;100.00;101387.25;6242247;22;20012;-76
2022/12/19 04:33:09;;;;;;;21.80;11.02;;;;;;;-0.29;100.00;101359.81;6239595;22;20107;-76
2022/12/19 04:35:37;;;;;;;22.65;11.35;;;;;;;-0.27;100.00;101354.75;6240964;22;20008;-76
2022/12/19 04:38:04;;;;;;;23.35;11.05;;;;;;;-0.23;100.00;101349.81;6213252;22;20020;-77
2022/12/19 04:40:31;;;;;;;20.00;10.20;;;;;;;-0.22;100.00;101346.44;6240982;22;20012;-76
2022/12/19 04:42:57;;;;;;;20.50;10.68;;;;;;;-0.19;100.00;101340.53;6236764;22;20035;-77
2022/12/19 04:45:24;;;;;;;17.30;11.30;;;;;;;-0.17;100.00;101351.78;6266602;22;20007;-76
2022/12/19 04:47:50;;;;;;;17.40;10.00;;;;;;;-0.16;100.00;101345.81;6238700;22;20011;-77
2022/12/19 04:50:17;;;;;;;20.98;10.38;;;;;;;-0.13;100.00;101340.84;6216153;22;20011;-76
2022/12/19 04:52:43;;;;;;;20.20;11.30;;;;;;;-0.12;100.00;101332.28;6215525;22;20039;-76
2022/12/19 04:55:10;;;;;;;19.20;10.25;;;;;;;-0.10;100.00;101322.06;6215997;22;20038;-76
2022/12/19 04:57:37;;;;;;;18.55;9.98;;;;;;;-0.09;100.00;101314.41;6241193;22;20107;-76
2022/12/19 05:00:07;;;;;;;23.95;12.82;;;;;;;-0.08;100.00;101305.91;6237607;22;20037;-78
2022/12/19 05:02:34;;;;;;;21.77;11.00;;;;;;;-0.06;100.00;101304.25;6238568;22;20016;-76
2022/12/19 05:05:01;;;;;;;18.58;11.63;;;;;;;-0.05;100.00;101303.44;6242713;22;20020;-77
2022/12/19 05:07:27;;;;;;;21.40;12.32;;;;;;;0.03;100.00;101308.03;6241785;22;20112;-75
2022/12/19 05:09:57;;;;;;;16.58;10.07;;;;;;;0.02;100.00;101298.59;6243215;22;20065;-75
2022/12/19 05:12:23;;;;;;;22.50;11.27;;;;;;;0.01;100.00;101300.25;6243913;22;20018;-76
2022/12/19 05:14:50;;;;;;;17.27;10.38;;;;;;;0.01;100.00;101292.53;6244071;22;20094;-77
2022/12/19 05:17:16;;;;;;;17.80;10.32;;;;;;;0.02;100.00;101298.59;6241425;22;20027;-75
2022/12/19 05:19:43;;;;;;;18.63;11.30;;;;;;;0.01;100.00;101282.25;6243643;22;20716;-75
2022/12/19 05:22:09;;;;;;;20.25;11.45;;;;;;;0.03;100.00;101280.63;6240785;22;20024;-76
2022/12/19 05:24:36;;;;;;;18.35;9.98;;;;;;;0.03;100.00;101280.63;6242855;22;20015;-77
2022/12/19 05:27:02;;;;;;;19.15;12.13;;;;;;;0.05;100.00;101276.41;6242341;22;20015;-76
2022/12/19 05:29:29;;;;;;;17.58;10.80;;;;;;;0.06;100.00;101267.00;6242053;22;20012;-75
2022/12/19 05:31:55;;;;;;;21.35;11.13;;;;;;;0.06;100.00;101261.84;6241727;22;20716;-76
2022/12/19 05:34:23;;;;;;;19.10;11.95;;;;;;;0.04;100.00;101260.91;6217326;22;20410;-76
2022/12/19 05:36:50;;;;;;;17.15;10.70;;;;;;;0.00;100.00;101262.47;6241722;22;20038;-75
2022/12/19 05:39:17;;;;;;;20.20;10.65;;;;;;;-0.04;100.00;101266.59;6240900;22;20454;-76
2022/12/19 05:41:43;;;;;;;21.50;11.85;;;;;;;-0.06;100.00;101273.38;6238741;22;20078;-75
2022/12/19 05:44:10;;;;;;;25.13;10.90;;;;;;;-0.08;100.00;101268.97;6243066;22;20016;-75
2022/12/19 05:46:37;;;;;;;21.25;11.35;;;;;;;-0.09;100.00;101273.25;6245146;22;20022;-76
2022/12/19 05:49:03;;;;;;;19.83;11.32;;;;;;;-0.08;100.00;101275.00;6242385;22;20057;-76
2022/12/19 05:51:30;;;;;;;18.23;11.77;;;;;;;-0.10;100.00;101280.91;6242729;22;20022;-75
2022/12/19 05:53:56;;;;;;;21.33;11.75;;;;;;;-0.08;100.00;101281.84;6271849;22;20035;-78
2022/12/19 05:56:23;;;;;;;22.48;11.75;;;;;;;-0.11;100.00;101279.13;6246790;22;20114;-75
2022/12/19 05:58:50;;;;;;;24.05;12.48;;;;;;;-0.12;100.00;101267.06;6246404;22;20024;-74
2022/12/19 06:01:19;;;;;;;21.98;11.70;;;;;;;-0.11;100.00;101261.97;6249849;22;20065;-78
2022/12/19 06:03:47;;;;;;;22.52;12.23;;;;;;;-0.09;100.00;101255.22;6246699;22;20043;-76
2022/12/19 06:06:19;;;;;;;23.42;12.18;;;;;;;-0.09;100.00;101246.59;6272904;22;20089;-76
2022/12/19 06:08:46;;;;;;;22.88;12.77;;;;;;;-0.11;100.00;101243.09;6246242;22;20430;-75
2022/12/19 06:11:14;;;;;;;25.55;11.18;;;;;;;-0.14;100.00;101236.13;6223191;22;20030;-76
2022/12/19 06:13:41;;;;;;;21.17;13.10;;;;;;;-0.14;100.00;101238.69;6249276;22;20082;-77
2022/12/19 06:16:16;;;;;;;18.17;10.50;;;;;;;-0.12;100.00;101238.75;6248988;22;20019;-75
2022/12/19 06:18:44;;;;;;;26.83;12.27;;;;;;;-0.11;100.00;101238.81;6246764;22;20082;-76
2022/12/19 06:21:20;;;;;;;26.27;13.45;;;;;;;-0.08;100.00;101246.69;6247082;22;20012;-76
2022/12/19 06:23:47;;;;;;;25.60;12.93;;;;;;;-0.04;100.00;101239.97;6247360;22;20011;-76
2022/12/19 06:26:17;;;;;;;22.90;13.95;;;;;;;-0.02;100.00;101234.06;6220642;22;20019;-77
2022/12/19 06:28:43;;;;;;;19.55;11.85;;;;;;;0.01;100.00;101233.34;6243564;22;20876;-75
2022/12/19 06:31:12;;;;;;;22.58;12.88;;;;;;;0.05;100.00;101226.63;6219011;22;20022;-75
2022/12/19 06:33:38;;;;;;;20.23;11.30;;;;;;;0.06;100.00;101230.97;6244745;22;20043;-76
2022/12/19 06:36:08;;;;;;;24.73;12.75;;;;;;;0.05;100.00;101231.78;6272682;22;20039;-76
2022/12/19 06:38:35;;;;;;;24.73;13.07;;;;;;;0.08;100.00;101226.75;6271518;22;20015;-76
2022/12/19 06:43:50;;;;;;;23.85;12.63;;;;;;;0.07;100.00;101227.59;6248736;22;20018;-75
2022/12/19 06:46:16;;;;;;;23.52;13.00;;;;;;;0.07;100.00;101241.31;6244903;22;20077;-76
2022/12/19 06:48:43;;;;;;;31.92;14.23;;;;;;;0.07;100.00;101231.03;6271406;22;20074;-75
2022/12/19 06:51:09;;;;;;;22.27;11.60;;;;;;;0.08;100.00;101212.19;6219159;22;20016;-75
2022/12/19 06:53:36;;;;;;;22.20;13.02;;;;;;;0.07;100.00;101207.84;6221110;22;20034;-76
2022/12/19 06:56:03;;;;;;;24.17;12.32;;;;;;;0.07;100.00;101225.00;6220526;22;20030;-77
2022/12/19 06:58:30;;;;;;;23.88;13.07;;;;;;;0.04;100.00;101219.72;6244856;22;20011;-75
2022/12/19 07:00:56;;;;;;;27.67;14.57;;;;;;;0.02;100.00;101226.50;6243668;22;20019;-75
2022/12/19 07:03:30;;;;;;;26.40;13.48;;;;;;;0.02;100.00;101226.50;6218254;22;20028;-75
2022/12/19 07:05:57;;;;;;;20.77;12.75;;;;;;;0.02;100.00;101226.50;6242755;22;20035;-78
2022/12/19 07:08:24;;;;;;;28.35;14.15;;;;;;;0.01;100.00;101219.59;6215026;22;20016;-75
2022/12/19 07:10:54;;;;;;;22.25;13.70;;;;;;;0.00;100.00;101216.16;6246240;22;20022;-77
2022/12/19 07:13:20;;;;;;;29.98;14.13;;;;;;;-0.01;100.00;101212.69;6244661;22;20015;-77
2022/12/19 07:15:48;;;;;;;26.17;13.65;;;;;;;-0.01;100.00;101225.53;6222400;22;20058;-77
2022/12/19 07:18:15;;;;;;;30.65;14.93;;;;;;;0.04;100.00;101217.13;6246920;22;20027;-76
2022/12/19 07:20:42;;;;;;;25.92;15.40;;;;;;;0.07;100.00;101225.00;6243216;22;20015;-77
2022/12/19 07:23:13;;;;;;;21.88;13.60;;;;;;;0.07;100.00;101214.72;6244404;22;20091;-76
2022/12/19 07:25:40;;;;;;;30.90;14.25;;;;;;;0.11;100.00;101214.91;6219124;22;20039;-76
2022/12/19 07:28:07;;;;;;;27.92;13.82;;;;;;;0.12;100.00;101211.50;6242449;22;20020;-76
2022/12/19 07:30:34;;;;;;;27.75;13.98;;;;;;;0.15;100.00;101203.91;6221220;22;20095;-75
2022/12/19 07:33:01;;;;;;;29.25;14.98;;;;;;;0.16;100.00;101205.69;6246611;22;20327;-76
2022/12/19 07:35:27;;;;;;;25.27;14.25;;;;;;;0.19;100.00;101207.50;6244184;22;20085;-76
2022/12/19 07:37:54;;;;;;;28.88;14.68;;;;;;;0.19;100.00;101204.94;6240072;22;20308;-77
2022/12/19 07:40:20;;;;;;;24.45;14.10;;;;;;;0.22;100.00;101209.31;6241898;22;20679;-77
2022/12/19 07:42:47;;;;;;;22.77;13.20;;;;;;;0.23;100.00;101209.38;6267980;22;20390;-76
2022/12/19 07:45:13;;;;;;;24.85;13.80;;;;;;;0.23;100.00;101205.94;6242314;22;20069;-76
2022/12/19 07:47:40;;;;;;;26.38;15.35;;;;;;;0.23;100.00;101199.09;6237819;22;20012;-76
2022/12/19 07:50:07;;;;;;;23.58;14.90;;;;;;;0.27;100.00;101212.97;6239059;22;20343;-78
2022/12/19 07:52:34;;;;;;;28.27;16.23;;;;;;;0.32;100.00;101211.47;6242710;22;20336;-76
2022/12/19 07:55:00;;;;;;;35.10;16.60;;;;;;;0.38;100.00;101203.09;6216449;22;20012;-76
2022/12/19 07:57:27;;;;;;;30.27;15.35;;;;;;;0.46;100.00;101206.91;6216108;22;20046;-77
2022/12/19 07:59:53;;;;;;;34.42;18.45;;;;;;;0.49;100.00;101205.31;6243737;22;20012;-79
2022/12/19 08:02:20;;;;;;;33.65;17.17;;;;;;;0.54;100.00;101207.22;6242143;22;20031;-75
2022/12/19 08:04:46;;;;;;;30.67;16.05;;;;;;;0.55;100.00;101204.69;6242638;22;20035;-76
2022/12/19 08:07:13;;;;;;;27.63;16.38;;;;;;;0.62;100.00;101210.97;6267695;22;20016;-77
2022/12/19 08:09:40;;;;;;;26.92;15.55;;;;;;;0.70;100.00;101211.28;6242271;22;20657;-77
2022/12/19 08:12:06;;;;;;;30.83;15.85;;;;;;;0.72;100.00;101212.22;6241339;22;20018;-80
2022/12/19 08:14:33;;;;;;;28.38;14.43;;;;;;;0.72;100.00;101214.78;6242731;22;20099;-77
2022/12/19 08:16:59;;;;;;;26.30;15.95;;;;;;;0.74;100.00;101200.28;6240830;22;20016;-76
2022/12/19 08:19:28;;;;;;;27.35;15.55;;;;;;;0.74;100.00;101193.41;6241570;22;20012;-76
2022/12/19 08:21:55;;;;;;;26.63;16.48;;;;;;;0.78;100.00;101197.00;6215163;22;20019;-79
2022/12/19 08:24:21;;;;;;;29.63;17.38;;;;;;;0.81;100.00;101197.16;6241776;22;20012;-78
2022/12/19 08:26:48;;;;;;;31.13;15.25;;;;;;;0.82;100.00;101194.63;6242031;22;20031;-78
2022/12/19 08:29:14;;;;;;;28.83;15.93;;;;;;;0.87;100.00;101201.66;6242147;22;20011;-78
2022/12/19 08:31:41;;;;;;;23.50;14.43;;;;;;;0.89;100.00;101200.91;6241572;22;20031;-79
2022/12/19 08:34:08;;;;;;;24.60;15.05;;;;;;;0.93;100.00;101189.88;6241666;22;20066;-78
2022/12/19 08:36:34;;;;;;;25.45;14.05;;;;;;;0.96;100.00;101196.84;6241239;22;20016;-78
2022/12/19 08:39:01;;;;;;;26.30;15.18;;;;;;;0.99;100.00;101182.38;6236829;22;20106;-77
2022/12/19 08:41:27;;;;;;;26.13;15.23;;;;;;;1.03;100.00;101185.97;6240555;22;20123;-79
2022/12/19 08:43:54;;;;;;;24.27;14.65;;;;;;;1.07;100.00;101180.09;6240176;22;20039;-80
2022/12/19 08:46:21;;;;;;;23.70;14.98;;;;;;;1.10;100.00;101177.63;6268244;22;20103;-78
2022/12/19 08:48:48;;;;;;;30.55;15.13;;;;;;;1.13;100.00;101184.59;6238715;22;20110;-77
2022/12/19 08:51:16;;;;;;;24.15;14.65;;;;;;;1.14;100.00;101179.50;6236728;22;20011;-78
2022/12/19 08:53:45;;;;;;;25.05;14.05;;;;;;;1.17;100.00;101189.06;6239361;22;20020;-76
2022/12/19 08:56:16;;;;;;;25.15;14.80;;;;;;;1.19;100.00;101164.22;6217728;22;20071;-78
2022/12/19 08:58:43;;;;;;;24.10;13.77;;;;;;;1.22;100.00;101169.47;6239123;22;20016;-78
2022/12/19 09:01:14;;;;;;;22.80;13.70;;;;;;;1.26;100.00;101173.06;6238804;22;20011;-77
2022/12/19 09:03:41;;;;;;;22.02;13.63;;;;;;;1.29;100.00;101173.16;6240812;22;20015;-78
2022/12/19 09:06:11;;;;;;;23.55;13.40;;;;;;;1.30;100.00;101160.34;6243129;22;20016;-79
2022/12/19 09:08:38;;;;;;;31.08;16.20;;;;;;;1.30;100.00;101157.75;6217355;22;20015;-75
2022/12/19 09:11:12;;;;;;;28.23;15.57;;;;;;;1.34;100.00;101160.44;6243680;22;20020;-78
2022/12/19 09:13:41;;;;;;;24.60;13.63;;;;;;;1.37;100.00;101170.88;6222574;22;20026;-78
2022/12/19 09:16:20;;;;;;;20.77;12.63;;;;;;;1.40;100.00;101171.00;6258328;22;20022;-77
2022/12/19 09:18:53;;;;;;;24.92;12.95;;;;;;;1.38;100.00;101149.41;6254161;22;20042;-76
2022/12/19 09:21:22;;;;;;;25.55;13.18;;;;;;;1.43;100.00;101155.63;6258741;22;20442;-77
2022/12/19 09:23:53;;;;;;;23.98;12.32;;;;;;;1.44;100.00;101153.09;6256394;22;20015;-79
2022/12/19 09:26:22;;;;;;;19.55;11.68;;;;;;;1.48;100.00;101160.13;6280722;22;20011;-78
2022/12/19 09:28:51;;;;;;;22.38;12.20;;;;;;;1.51;100.00;101154.19;6251491;22;20102;-76
2022/12/19 09:31:21;;;;;;;17.88;10.63;;;;;;;1.51;100.00;101151.59;6249613;22;20812;-77
2022/12/19 09:33:48;;;;;;;20.40;11.57;;;;;;;1.57;100.00;101161.28;6248042;22;20016;-76
2022/12/19 09:36:19;;;;;;;20.30;11.80;;;;;;;1.59;100.00;101154.47;6224895;22;20051;-76
2022/12/19 09:38:47;;;;;;;20.50;12.95;;;;;;;1.63;100.00;101151.16;6248246;22;20016;-76
2022/12/19 09:41:13;;;;;;;16.90;10.00;;;;;;;1.68;100.00;101151.34;6246632;22;20020;-78
2022/12/19 09:43:58;;;;;;;16.08;10.75;;;;;;;1.69;100.00;101140.19;6272672;22;20720;-76
2022/12/19 09:46:50;;;;;;;16.23;10.40;;;;;;;1.74;100.00;101146.41;6275341;22;20300;-76
2022/12/19 09:49:27;;;;;;;18.95;11.75;;;;;;;1.76;100.00;101143.06;6221269;22;20074;-76
2022/12/19 09:52:24;;;;;;;21.02;10.75;;;;;;;1.80;100.00;101150.06;6246049;22;20737;-76
2022/12/19 09:55:19;;;;;;;16.77;10.88;;;;;;;1.85;100.00;101139.88;6244163;22;20330;-78
2022/12/19 09:57:58;;;;;;;20.15;12.38;;;;;;;1.88;100.00;101145.19;6244298;22;20283;-79
2022/12/19 10:00:32;;;;;;;16.23;10.15;;;;;;;1.92;100.00;101138.44;6271735;22;20084;-78
2022/12/19 10:03:21;;;;;;;17.50;10.52;;;;;;;1.97;100.00;101134.28;6215753;22;20023;-77
2022/12/19 10:06:03;;;;;;;20.20;11.35;;;;;;;2.03;100.00;101129.31;6240427;22;20409;-78
2022/12/19 10:08:42;;;;;;;15.85;10.25;;;;;;;2.09;100.00;101139.00;6243720;22;20035;-78
2022/12/19 10:11:15;;;;;;;16.75;10.52;;;;;;;2.09;100.00;101139.00;6219639;22;20011;-78
2022/12/19 10:14:02;;;;;;;19.02;10.63;;;;;;;2.10;100.00;101153.63;6242731;22;20043;-78
2022/12/19 10:16:49;;;;;;;14.25;9.52;;;;;;;2.10;100.00;101139.03;6239601;22;20062;-76
2022/12/19 10:19:33;;;;;;;15.57;9.52;;;;;;;2.10;100.00;101132.97;6192722;22;20054;-77
2022/12/19 10:22:31;;;;;;;17.45;11.18;;;;;;;2.11;100.00;101139.91;6216166;22;20024;-78
2022/12/19 10:25:54;;;;;;;17.33;10.95;;;;;;;2.12;100.00;101129.63;6217680;22;20104;-76
2022/12/19 10:28:52;;;;;;;15.32;10.15;;;;;;;2.15;100.00;101136.59;6180059;22;20267;-77
2022/12/19 10:31:30;;;;;;;18.58;11.35;;;;;;;2.16;100.00;101125.44;6217701;22;20015;-79
2022/12/19 10:34:06;;;;;;;17.88;10.82;;;;;;;2.18;100.00;101126.38;6218429;22;20690;-77
2022/12/19 10:36:47;;;;;;;19.00;12.00;;;;;;;2.20;100.00;101123.84;6214831;22;20437;-76
2022/12/19 10:39:36;;;;;;;16.52;10.38;;;;;;;2.24;100.00;101125.69;6242096;22;20406;-76
2022/12/19 10:42:32;;;;;;;15.65;9.60;;;;;;;2.25;100.00;101115.41;6242775;22;20043;-77
2022/12/19 10:45:06;;;;;;;15.98;10.80;;;;;;;2.30;100.00;101100.94;6243810;22;20027;-78
2022/12/19 10:47:32;;;;;;;20.55;12.55;;;;;;;2.34;100.00;101098.47;6242592;22;20012;-77
2022/12/19 10:49:59;;;;;;;16.95;11.48;;;;;;;2.38;100.00;101093.44;6241808;22;20701;-78
2022/12/19 10:52:51;;;;;;;15.43;10.00;;;;;;;2.43;100.00;101097.03;6216356;22;20019;-78
2022/12/19 10:55:32;;;;;;;18.42;11.43;;;;;;;2.48;100.00;101090.31;6241933;22;20089;-77
2022/12/19 10:58:01;;;;;;;17.88;11.65;;;;;;;2.52;100.00;101068.03;6268748;22;20027;-76
2022/12/19 11:00:29;;;;;;;19.63;12.25;;;;;;;2.56;100.00;101069.88;6217780;22;20016;-77
2022/12/19 11:03:13;;;;;;;19.67;12.05;;;;;;;2.59;100.00;101064.78;6213707;22;20016;-76
2022/12/19 11:05:56;;;;;;;;;;;;;;;2.63;100.00;101063.16;6245002;22;20070;-79
2022/12/19 11:08:41;;;;;;;19.55;12.57;;;;;;;2.72;100.00;101072.91;6217732;22;20495;-79
2022/12/19 11:11:08;;;;;;;17.17;11.25;;;;;;;2.75;100.00;101066.13;6218456;22;20062;-78
2022/12/19 11:13:34;;;;;;;19.63;12.10;;;;;;;2.83;100.00;101074.13;6270742;22;20074;-78
2022/12/19 11:16:03;;;;;;;19.17;12.27;;;;;;;2.87;100.00;101075.97;6270561;22;20012;-78
2022/12/19 11:18:34;;;;;;;20.80;12.18;;;;;;;2.92;100.00;101063.16;6216255;22;20023;-77
2022/12/19 11:21:13;;;;;;;19.90;12.15;;;;;;;2.96;100.00;101055.53;6242826;22;20138;-78
2022/12/19 11:24:00;;;;;;;22.08;12.70;;;;;;;3.02;100.00;101057.41;6242364;22;20039;-77
2022/12/19 11:26:42;;;;;;;20.25;12.63;;;;;;;3.07;100.00;101049.78;6241427;22;20034;-78
2022/12/19 11:29:49;;;;;;;18.60;11.18;;;;;;;3.12;100.00;101048.22;6242202;22;20046;-78
2022/12/19 11:32:46;;;;;;;22.90;13.18;;;;;;;3.19;100.00;101044.94;6241431;22;20030;-77
2022/12/19 11:35:26;;;;;;;21.52;12.68;;;;;;;3.24;100.00;101043.34;6239643;22;20028;-79
2022/12/19 11:37:59;;;;;;;22.13;12.98;;;;;;;3.30;100.00;101048.72;6240342;22;20711;-76
2022/12/19 11:40:37;;;;;;;19.58;12.95;;;;;;;3.31;100.00;101044.41;6243325;22;20016;-78
2022/12/19 11:43:08;;;;;;;23.02;13.77;;;;;;;3.35;100.00;101060.88;6244057;22;20453;-78
2022/12/19 11:45:40;;;;;;;21.73;12.63;;;;;;;3.36;100.00;101058.34;6221231;22;20016;-78
2022/12/19 11:48:20;;;;;;;20.45;12.77;;;;;;;3.39;100.00;101054.97;6244345;22;20418;-77